sensor_id;sensor_type;location;lat;lon;timestamp;temperature;humidity
48988;DHT22;34799;51.440;-2.534;2022-08-11T00:08:24;24.10;87.70
48988;DHT22;34799;51.440;-2.534;2022-08-11T00:11:08;24.00;88.00
48988;DHT22;34799;51.440;-2.534;2022-08-11T00:13:49;23.50;87.90
48988;DHT22;34799;51.440;-2.534;2022-08-11T00:16:19;23.10;88.60
48988;DHT22;34799;51.440;-2.534;2022-08-11T00:18:53;24.00;89.60
48988;DHT22;34799;51.440;-2.534;2022-08-11T00:21:30;24.00;88.60
48988;DHT22;34799;51.440;-2.534;2022-08-11T01:05:55;23.80;87.70
48988;DHT22;34799;51.440;-2.534;2022-08-11T01:19:56;23.60;88.60
48988;DHT22;34799;51.440;-2.534;2022-08-11T01:40:49;23.30;89.40
48988;DHT22;34799;51.440;-2.534;2022-08-11T01:46:47;23.10;89.80
48988;DHT22;34799;51.440;-2.534;2022-08-11T01:49:35;23.10;90.50
48988;DHT22;34799;51.440;-2.534;2022-08-11T01:52:19;23.10;90.30
48988;DHT22;34799;51.440;-2.534;2022-08-11T01:55:20;23.00;90.60
48988;DHT22;34799;51.440;-2.534;2022-08-11T01:58:07;23.90;91.10
48988;DHT22;34799;51.440;-2.534;2022-08-11T02:00:50;22.80;90.90
48988;DHT22;34799;51.440;-2.534;2022-08-11T02:15:01;22.60;91.20
48988;DHT22;34799;51.440;-2.534;2022-08-11T02:20:45;22.30;91.80
48988;DHT22;34799;51.440;-2.534;2022-08-11T02:23:58;22.40;91.70
48988;DHT22;34799;51.440;-2.534;2022-08-11T02:26:52;22.90;91.60
48988;DHT22;34799;51.440;-2.534;2022-08-11T02:33:26;22.20;91.60
48988;DHT22;34799;51.440;-2.534;2022-08-11T02:36:16;22.00;91.70
48988;DHT22;34799;51.440;-2.534;2022-08-11T02:41:36;21.40;92.10
48988;DHT22;34799;51.440;-2.534;2022-08-11T02:44:45;22.10;92.10
48988;DHT22;34799;51.440;-2.534;2022-08-11T02:53:53;21.70;92.20
48988;DHT22;34799;51.440;-2.534;2022-08-11T02:57:01;21.90;92.30
48988;DHT22;34799;51.440;-2.534;2022-08-11T02:59:46;21.70;92.10
48988;DHT22;34799;51.440;-2.534;2022-08-11T03:08:00;21.60;93.30
48988;DHT22;34799;51.440;-2.534;2022-08-11T03:13:53;21.30;92.30
48988;DHT22;34799;51.440;-2.534;2022-08-11T03:17:24;20.70;92.40
48988;DHT22;34799;51.440;-2.534;2022-08-11T03:23:16;21.50;92.60
48988;DHT22;34799;51.440;-2.534;2022-08-11T03:26:12;21.60;92.90
48988;DHT22;34799;51.440;-2.534;2022-08-11T03:29:18;21.50;92.80
48988;DHT22;34799;51.440;-2.534;2022-08-11T03:32:03;21.50;92.50
48988;DHT22;34799;51.440;-2.534;2022-08-11T03:34:40;21.70;92.80
48988;DHT22;34799;51.440;-2.534;2022-08-11T03:52:41;21.10;93.30
48988;DHT22;34799;51.440;-2.534;2022-08-11T04:24:52;18.80;93.10
48988;DHT22;34799;51.440;-2.534;2022-08-11T04:36:50;20.80;94.00
48988;DHT22;34799;51.440;-2.534;2022-08-11T04:49:05;20.60;94.40
48988;DHT22;34799;51.440;-2.534;2022-08-11T05:02:44;20.40;94.90
48988;DHT22;34799;51.440;-2.534;2022-08-11T05:06:22;20.30;95.00
48988;DHT22;34799;51.440;-2.534;2022-08-11T05:08:37;20.30;95.10
48988;DHT22;34799;51.440;-2.534;2022-08-11T05:17:05;20.30;95.50
48988;DHT22;34799;51.440;-2.534;2022-08-11T05:19:59;20.30;95.80
48988;DHT22;34799;51.440;-2.534;2022-08-11T05:22:49;20.30;95.80
48988;DHT22;34799;51.440;-2.534;2022-08-11T05:25:44;18.60;95.30
48988;DHT22;34799;51.440;-2.534;2022-08-11T05:28:32;21.30;96.00
48988;DHT22;34799;51.440;-2.534;2022-08-11T05:31:31;20.20;95.70
48988;DHT22;34799;51.440;-2.534;2022-08-11T05:34:25;20.10;96.00
48988;DHT22;34799;51.440;-2.534;2022-08-11T05:40:06;20.30;95.90
48988;DHT22;34799;51.440;-2.534;2022-08-11T05:43:02;20.40;96.00
48988;DHT22;34799;51.440;-2.534;2022-08-11T05:45:59;20.50;96.60
48988;DHT22;34799;51.440;-2.534;2022-08-11T05:48:53;20.50;96.10
48988;DHT22;34799;51.440;-2.534;2022-08-11T05:51:44;20.40;96.40
48988;DHT22;34799;51.440;-2.534;2022-08-11T05:54:33;21.00;96.50
48988;DHT22;34799;51.440;-2.534;2022-08-11T05:57:23;21.40;96.90
48988;DHT22;34799;51.440;-2.534;2022-08-11T06:00:07;20.00;96.40
48988;DHT22;34799;51.440;-2.534;2022-08-11T06:02:41;21.40;96.50
48988;DHT22;34799;51.440;-2.534;2022-08-11T06:05:11;20.50;96.30
48988;DHT22;34799;51.440;-2.534;2022-08-11T06:07:43;20.60;96.70
48988;DHT22;34799;51.440;-2.534;2022-08-11T06:10:34;20.50;96.80
48988;DHT22;34799;51.440;-2.534;2022-08-11T06:13:09;20.50;96.80
48988;DHT22;34799;51.440;-2.534;2022-08-11T06:15:48;20.60;97.10
48988;DHT22;34799;51.440;-2.534;2022-08-11T06:18:19;20.70;97.20
48988;DHT22;34799;51.440;-2.534;2022-08-11T06:20:52;20.60;97.40
48988;DHT22;34799;51.440;-2.534;2022-08-11T06:23:31;20.40;97.40
48988;DHT22;34799;51.440;-2.534;2022-08-11T06:26:10;20.40;97.20
48988;DHT22;34799;51.440;-2.534;2022-08-11T06:28:42;20.40;97.40
48988;DHT22;34799;51.440;-2.534;2022-08-11T06:31:27;20.50;97.40
48988;DHT22;34799;51.440;-2.534;2022-08-11T06:34:14;20.60;97.30
48988;DHT22;34799;51.440;-2.534;2022-08-11T06:37:21;20.20;97.00
48988;DHT22;34799;51.440;-2.534;2022-08-11T06:40:15;20.60;97.00
48988;DHT22;34799;51.440;-2.534;2022-08-11T06:45:29;20.80;97.40
48988;DHT22;34799;51.440;-2.534;2022-08-11T06:47:59;20.80;97.10
48988;DHT22;34799;51.440;-2.534;2022-08-11T06:50:35;21.20;97.10
48988;DHT22;34799;51.440;-2.534;2022-08-11T06:53:55;20.90;96.70
48988;DHT22;34799;51.440;-2.534;2022-08-11T06:56:33;20.50;96.80
48988;DHT22;34799;51.440;-2.534;2022-08-11T06:59:33;19.70;96.60
48988;DHT22;34799;51.440;-2.534;2022-08-11T07:02:30;21.00;97.00
48988;DHT22;34799;51.440;-2.534;2022-08-11T07:05:07;21.20;97.00
48988;DHT22;34799;51.440;-2.534;2022-08-11T07:11:22;19.80;96.30
48988;DHT22;34799;51.440;-2.534;2022-08-11T07:14:20;21.30;96.60
48988;DHT22;34799;51.440;-2.534;2022-08-11T07:17:14;21.40;96.30
48988;DHT22;34799;51.440;-2.534;2022-08-11T07:19:51;21.70;96.80
48988;DHT22;34799;51.440;-2.534;2022-08-11T07:23:01;22.20;96.80
48988;DHT22;34799;51.440;-2.534;2022-08-11T07:25:53;21.80;96.40
48988;DHT22;34799;51.440;-2.534;2022-08-11T07:28:45;21.60;96.30
48988;DHT22;34799;51.440;-2.534;2022-08-11T07:31:35;21.70;96.30
48988;DHT22;34799;51.440;-2.534;2022-08-11T07:34:33;21.80;96.20
48988;DHT22;34799;51.440;-2.534;2022-08-11T07:37:11;21.80;96.10
48988;DHT22;34799;51.440;-2.534;2022-08-11T07:39:44;21.90;96.00
48988;DHT22;34799;51.440;-2.534;2022-08-11T07:42:17;23.60;96.40
48988;DHT22;34799;51.440;-2.534;2022-08-11T07:44:49;21.90;95.70
48988;DHT22;34799;51.440;-2.534;2022-08-11T07:47:45;22.00;95.50
48988;DHT22;34799;51.440;-2.534;2022-08-11T07:50:33;22.00;95.50
48988;DHT22;34799;51.440;-2.534;2022-08-11T07:53:32;21.90;95.50
48988;DHT22;34799;51.440;-2.534;2022-08-11T07:56:01;22.00;95.40
48988;DHT22;34799;51.440;-2.534;2022-08-11T07:58:36;22.20;95.50
48988;DHT22;34799;51.440;-2.534;2022-08-11T08:01:32;22.40;95.60
48988;DHT22;34799;51.440;-2.534;2022-08-11T08:04:19;22.30;95.50
48988;DHT22;34799;51.440;-2.534;2022-08-11T08:07:05;22.30;95.30
48988;DHT22;34799;51.440;-2.534;2022-08-11T08:09:58;22.50;95.40
48988;DHT22;34799;51.440;-2.534;2022-08-11T08:12:45;22.60;95.50
48988;DHT22;34799;51.440;-2.534;2022-08-11T08:19:01;22.60;95.20
48988;DHT22;34799;51.440;-2.534;2022-08-11T08:21:29;21.80;95.00
48988;DHT22;34799;51.440;-2.534;2022-08-11T08:24:00;22.70;95.40
48988;DHT22;34799;51.440;-2.534;2022-08-11T08:26:29;22.80;95.00
48988;DHT22;34799;51.440;-2.534;2022-08-11T08:29:31;23.00;95.10
48988;DHT22;34799;51.440;-2.534;2022-08-11T08:32:19;23.10;94.90
48988;DHT22;34799;51.440;-2.534;2022-08-11T08:34:55;23.90;95.60
48988;DHT22;34799;51.440;-2.534;2022-08-11T08:37:29;23.10;94.80
48988;DHT22;34799;51.440;-2.534;2022-08-11T08:39:56;23.30;95.60
48988;DHT22;34799;51.440;-2.534;2022-08-11T08:43:12;23.30;95.10
48988;DHT22;34799;51.440;-2.534;2022-08-11T08:45:50;23.50;94.80
48988;DHT22;34799;51.440;-2.534;2022-08-11T08:48:25;23.80;94.90
48988;DHT22;34799;51.440;-2.534;2022-08-11T08:51:08;23.80;94.60
48988;DHT22;34799;51.440;-2.534;2022-08-11T08:54:05;23.60;94.30
48988;DHT22;34799;51.440;-2.534;2022-08-11T08:56:37;23.70;94.10
48988;DHT22;34799;51.440;-2.534;2022-08-11T08:59:15;23.90;94.40
48988;DHT22;34799;51.440;-2.534;2022-08-11T09:01:52;24.00;93.90
48988;DHT22;34799;51.440;-2.534;2022-08-11T09:04:36;22.10;93.50
48988;DHT22;34799;51.440;-2.534;2022-08-11T09:07:10;24.10;94.50
48988;DHT22;34799;51.440;-2.534;2022-08-11T09:09:47;24.20;93.60
48988;DHT22;34799;51.440;-2.534;2022-08-11T09:12:18;24.30;93.70
48988;DHT22;34799;51.440;-2.534;2022-08-11T09:14:56;24.40;93.30
48988;DHT22;34799;51.440;-2.534;2022-08-11T09:20:26;24.90;92.50
48988;DHT22;34799;51.440;-2.534;2022-08-11T09:23:07;24.80;92.40
48988;DHT22;34799;51.440;-2.534;2022-08-11T09:26:15;25.00;92.70
48988;DHT22;34799;51.440;-2.534;2022-08-11T09:29:11;25.20;91.80
48988;DHT22;34799;51.440;-2.534;2022-08-11T09:31:41;25.40;91.50
48988;DHT22;34799;51.440;-2.534;2022-08-11T09:34:16;25.20;91.30
48988;DHT22;34799;51.440;-2.534;2022-08-11T09:36:45;25.20;91.60
48988;DHT22;34799;51.440;-2.534;2022-08-11T09:39:44;24.70;91.20
48988;DHT22;34799;51.440;-2.534;2022-08-11T09:42:34;25.80;90.80
48988;DHT22;34799;51.440;-2.534;2022-08-11T09:48:22;25.70;90.40
48988;DHT22;34799;51.440;-2.534;2022-08-11T09:50:53;25.90;88.60
48988;DHT22;34799;51.440;-2.534;2022-08-11T09:53:25;26.20;88.70
48988;DHT22;34799;51.440;-2.534;2022-08-11T09:55:57;26.20;89.60
48988;DHT22;34799;51.440;-2.534;2022-08-11T09:58:26;26.30;88.80
48988;DHT22;34799;51.440;-2.534;2022-08-11T10:00:58;26.60;89.80
48988;DHT22;34799;51.440;-2.534;2022-08-11T10:03:30;26.30;88.80
48988;DHT22;34799;51.440;-2.534;2022-08-11T10:09:18;26.40;87.60
48988;DHT22;34799;51.440;-2.534;2022-08-11T10:11:47;26.70;86.60
48988;DHT22;34799;51.440;-2.534;2022-08-11T10:14:17;26.70;87.00
48988;DHT22;34799;51.440;-2.534;2022-08-11T10:17:14;26.60;86.90
48988;DHT22;34799;51.440;-2.534;2022-08-11T10:19:49;26.70;86.50
48988;DHT22;34799;51.440;-2.534;2022-08-11T10:22:20;26.80;86.20
48988;DHT22;34799;51.440;-2.534;2022-08-11T10:25:07;27.00;86.40
48988;DHT22;34799;51.440;-2.534;2022-08-11T10:27:54;27.10;84.40
48988;DHT22;34799;51.440;-2.534;2022-08-11T10:30:31;27.10;85.10
48988;DHT22;34799;51.440;-2.534;2022-08-11T10:33:28;27.30;84.80
48988;DHT22;34799;51.440;-2.534;2022-08-11T10:36:54;27.50;84.20
48988;DHT22;34799;51.440;-2.534;2022-08-11T10:39:51;26.90;81.90
48988;DHT22;34799;51.440;-2.534;2022-08-11T10:42:22;27.60;82.60
48988;DHT22;34799;51.440;-2.534;2022-08-11T10:45:21;27.70;83.60
48988;DHT22;34799;51.440;-2.534;2022-08-11T10:48:23;27.60;83.30
48988;DHT22;34799;51.440;-2.534;2022-08-11T10:50:52;28.40;82.60
48988;DHT22;34799;51.440;-2.534;2022-08-11T10:53:54;27.80;81.80
48988;DHT22;34799;51.440;-2.534;2022-08-11T10:56:43;27.90;82.50
48988;DHT22;34799;51.440;-2.534;2022-08-11T10:59:33;28.30;84.20
48988;DHT22;34799;51.440;-2.534;2022-08-11T11:02:04;28.10;82.00
48988;DHT22;34799;51.440;-2.534;2022-08-11T11:05:01;28.20;81.00
48988;DHT22;34799;51.440;-2.534;2022-08-11T11:07:38;30.00;81.10
48988;DHT22;34799;51.440;-2.534;2022-08-11T11:10:11;30.00;81.90
48988;DHT22;34799;51.440;-2.534;2022-08-11T11:12:44;28.40;82.60
48988;DHT22;34799;51.440;-2.534;2022-08-11T11:15:35;28.40;81.70
48988;DHT22;34799;51.440;-2.534;2022-08-11T11:18:31;27.80;79.50
48988;DHT22;34799;51.440;-2.534;2022-08-11T11:21:05;28.40;79.80
48988;DHT22;34799;51.440;-2.534;2022-08-11T11:24:20;28.60;81.40
48988;DHT22;34799;51.440;-2.534;2022-08-11T11:27:05;28.40;80.60
48988;DHT22;34799;51.440;-2.534;2022-08-11T11:37:48;28.70;80.80
48988;DHT22;34799;51.440;-2.534;2022-08-11T11:40:18;28.90;81.00
48988;DHT22;34799;51.440;-2.534;2022-08-11T11:43:00;28.80;81.40
48988;DHT22;34799;51.440;-2.534;2022-08-11T11:45:29;28.90;81.70
48988;DHT22;34799;51.440;-2.534;2022-08-11T11:48:01;28.90;80.00
48988;DHT22;34799;51.440;-2.534;2022-08-11T11:50:35;29.00;80.00
48988;DHT22;34799;51.440;-2.534;2022-08-11T11:53:07;29.10;80.00
48988;DHT22;34799;51.440;-2.534;2022-08-11T11:55:37;29.20;79.30
48988;DHT22;34799;51.440;-2.534;2022-08-11T11:58:11;29.10;79.90
48988;DHT22;34799;51.440;-2.534;2022-08-11T12:01:03;29.10;80.50
48988;DHT22;34799;51.440;-2.534;2022-08-11T12:03:48;28.60;78.90
48988;DHT22;34799;51.440;-2.534;2022-08-11T12:06:19;29.10;78.90
48988;DHT22;34799;51.440;-2.534;2022-08-11T12:08:49;28.30;79.40
48988;DHT22;34799;51.440;-2.534;2022-08-11T12:11:19;29.30;79.80
48988;DHT22;34799;51.440;-2.534;2022-08-11T12:14:08;29.60;78.50
48988;DHT22;34799;51.440;-2.534;2022-08-11T12:16:39;29.70;77.40
48988;DHT22;34799;51.440;-2.534;2022-08-11T12:19:19;29.90;77.70
48988;DHT22;34799;51.440;-2.534;2022-08-11T12:21:50;30.10;77.00
48988;DHT22;34799;51.440;-2.534;2022-08-11T12:24:38;30.20;78.90
48988;DHT22;34799;51.440;-2.534;2022-08-11T12:27:33;30.30;78.60
48988;DHT22;34799;51.440;-2.534;2022-08-11T12:30:04;30.70;79.50
48988;DHT22;34799;51.440;-2.534;2022-08-11T12:32:36;30.40;77.80
48988;DHT22;34799;51.440;-2.534;2022-08-11T12:35:08;30.60;77.70
48988;DHT22;34799;51.440;-2.534;2022-08-11T12:37:41;30.80;79.20
48988;DHT22;34799;51.440;-2.534;2022-08-11T12:40:18;30.60;77.90
48988;DHT22;34799;51.440;-2.534;2022-08-11T12:43:17;30.80;77.90
48988;DHT22;34799;51.440;-2.534;2022-08-11T12:46:11;31.10;77.90
48988;DHT22;34799;51.440;-2.534;2022-08-11T12:48:46;30.80;78.20
48988;DHT22;34799;51.440;-2.534;2022-08-11T12:51:36;31.30;77.30
48988;DHT22;34799;51.440;-2.534;2022-08-11T12:58:13;30.60;75.30
48988;DHT22;34799;51.440;-2.534;2022-08-11T13:00:44;30.90;76.90
48988;DHT22;34799;51.440;-2.534;2022-08-11T13:03:34;31.00;76.50
48988;DHT22;34799;51.440;-2.534;2022-08-11T13:06:23;31.00;76.20
48988;DHT22;34799;51.440;-2.534;2022-08-11T13:08:52;31.00;76.50
48988;DHT22;34799;51.440;-2.534;2022-08-11T13:11:26;31.20;75.90
48988;DHT22;34799;51.440;-2.534;2022-08-11T13:14:15;31.20;75.50
48988;DHT22;34799;51.440;-2.534;2022-08-11T13:16:48;31.10;75.20
48988;DHT22;34799;51.440;-2.534;2022-08-11T13:19:40;31.40;75.20
48988;DHT22;34799;51.440;-2.534;2022-08-11T13:22:14;31.40;74.20
48988;DHT22;34799;51.440;-2.534;2022-08-11T13:24:43;31.50;74.80
48988;DHT22;34799;51.440;-2.534;2022-08-11T13:27:17;31.50;74.60
48988;DHT22;34799;51.440;-2.534;2022-08-11T13:29:46;31.50;74.40
48988;DHT22;34799;51.440;-2.534;2022-08-11T13:32:19;31.40;74.70
48988;DHT22;34799;51.440;-2.534;2022-08-11T13:34:49;31.30;72.20
48988;DHT22;34799;51.440;-2.534;2022-08-11T13:37:19;31.10;74.70
48988;DHT22;34799;51.440;-2.534;2022-08-11T13:39:48;31.10;75.10
48988;DHT22;34799;51.440;-2.534;2022-08-11T13:42:19;31.20;75.40
48988;DHT22;34799;51.440;-2.534;2022-08-11T13:44:51;31.30;76.40
48988;DHT22;34799;51.440;-2.534;2022-08-11T13:47:19;31.50;75.60
48988;DHT22;34799;51.440;-2.534;2022-08-11T13:49:51;31.60;75.80
48988;DHT22;34799;51.440;-2.534;2022-08-11T13:52:19;31.60;74.30
48988;DHT22;34799;51.440;-2.534;2022-08-11T13:54:48;31.80;75.10
48988;DHT22;34799;51.440;-2.534;2022-08-11T13:57:20;32.20;73.90
48988;DHT22;34799;51.440;-2.534;2022-08-11T13:59:53;32.20;73.50
48988;DHT22;34799;51.440;-2.534;2022-08-11T14:02:27;32.30;73.40
48988;DHT22;34799;51.440;-2.534;2022-08-11T14:05:02;32.40;73.30
48988;DHT22;34799;51.440;-2.534;2022-08-11T14:07:38;32.50;73.70
48988;DHT22;34799;51.440;-2.534;2022-08-11T14:10:11;32.70;73.40
48988;DHT22;34799;51.440;-2.534;2022-08-11T14:12:59;34.00;73.30
48988;DHT22;34799;51.440;-2.534;2022-08-11T14:15:47;32.70;72.20
48988;DHT22;34799;51.440;-2.534;2022-08-11T14:18:31;32.60;72.60
48988;DHT22;34799;51.440;-2.534;2022-08-11T14:21:03;32.60;72.50
48988;DHT22;34799;51.440;-2.534;2022-08-11T14:23:52;32.70;72.50
48988;DHT22;34799;51.440;-2.534;2022-08-11T14:26:26;32.90;72.60
48988;DHT22;34799;51.440;-2.534;2022-08-11T14:29:19;32.90;72.20
48988;DHT22;34799;51.440;-2.534;2022-08-11T14:32:01;31.70;70.60
48988;DHT22;34799;51.440;-2.534;2022-08-11T14:34:33;32.80;71.30
48988;DHT22;34799;51.440;-2.534;2022-08-11T14:37:09;32.80;71.00
48988;DHT22;34799;51.440;-2.534;2022-08-11T14:39:55;33.10;71.80
48988;DHT22;34799;51.440;-2.534;2022-08-11T14:42:28;32.70;70.30
48988;DHT22;34799;51.440;-2.534;2022-08-11T14:45:24;33.30;70.60
48988;DHT22;34799;51.440;-2.534;2022-08-11T14:48:11;33.80;71.00
48988;DHT22;34799;51.440;-2.534;2022-08-11T14:50:40;33.80;72.30
48988;DHT22;34799;51.440;-2.534;2022-08-11T14:53:10;33.90;70.80
48988;DHT22;34799;51.440;-2.534;2022-08-11T14:55:42;33.90;70.60
48988;DHT22;34799;51.440;-2.534;2022-08-11T14:58:33;33.90;70.70
48988;DHT22;34799;51.440;-2.534;2022-08-11T15:01:03;34.00;70.10
48988;DHT22;34799;51.440;-2.534;2022-08-11T15:03:52;33.90;70.00
48988;DHT22;34799;51.440;-2.534;2022-08-11T15:06:27;34.00;70.30
48988;DHT22;34799;51.440;-2.534;2022-08-11T15:09:42;34.00;70.10
48988;DHT22;34799;51.440;-2.534;2022-08-11T15:12:22;34.00;70.00
48988;DHT22;34799;51.440;-2.534;2022-08-11T15:14:53;34.00;70.20
48988;DHT22;34799;51.440;-2.534;2022-08-11T15:17:43;34.10;70.00
48988;DHT22;34799;51.440;-2.534;2022-08-11T15:20:17;34.00;69.20
48988;DHT22;34799;51.440;-2.534;2022-08-11T15:23:07;34.20;69.50
48988;DHT22;34799;51.440;-2.534;2022-08-11T15:25:58;34.30;69.40
48988;DHT22;34799;51.440;-2.534;2022-08-11T15:28:30;34.30;69.10
48988;DHT22;34799;51.440;-2.534;2022-08-11T15:31:18;34.50;69.30
48988;DHT22;34799;51.440;-2.534;2022-08-11T15:34:07;34.50;69.00
48988;DHT22;34799;51.440;-2.534;2022-08-11T15:36:57;34.90;69.00
48988;DHT22;34799;51.440;-2.534;2022-08-11T15:43:06;34.70;68.40
48988;DHT22;34799;51.440;-2.534;2022-08-11T15:45:57;34.70;68.30
48988;DHT22;34799;51.440;-2.534;2022-08-11T15:51:17;34.70;67.90
48988;DHT22;34799;51.440;-2.534;2022-08-11T15:53:52;35.20;67.30
48988;DHT22;34799;51.440;-2.534;2022-08-11T15:56:23;35.30;68.20
48988;DHT22;34799;51.440;-2.534;2022-08-11T15:58:58;35.50;68.90
48988;DHT22;34799;51.440;-2.534;2022-08-11T16:01:48;35.60;68.50
48988;DHT22;34799;51.440;-2.534;2022-08-11T16:04:39;35.80;67.30
48988;DHT22;34799;51.440;-2.534;2022-08-11T16:07:14;36.10;68.30
48988;DHT22;34799;51.440;-2.534;2022-08-11T16:12:20;35.80;68.00
48988;DHT22;34799;51.440;-2.534;2022-08-11T16:15:02;35.70;66.90
48988;DHT22;34799;51.440;-2.534;2022-08-11T16:17:52;35.80;67.60
48988;DHT22;34799;51.440;-2.534;2022-08-11T16:20:25;35.80;67.40
48988;DHT22;34799;51.440;-2.534;2022-08-11T16:23:02;36.10;67.30
48988;DHT22;34799;51.440;-2.534;2022-08-11T16:25:35;36.20;66.60
48988;DHT22;34799;51.440;-2.534;2022-08-11T16:28:06;36.00;66.90
48988;DHT22;34799;51.440;-2.534;2022-08-11T16:30:39;36.00;66.40
48988;DHT22;34799;51.440;-2.534;2022-08-11T16:33:11;36.30;66.60
48988;DHT22;34799;51.440;-2.534;2022-08-11T16:35:42;36.80;66.30
48988;DHT22;34799;51.440;-2.534;2022-08-11T16:38:32;36.80;65.60
48988;DHT22;34799;51.440;-2.534;2022-08-11T16:43:41;36.80;65.20
48988;DHT22;34799;51.440;-2.534;2022-08-11T16:46:39;36.80;65.00
48988;DHT22;34799;51.440;-2.534;2022-08-11T16:49:37;37.00;65.00
48988;DHT22;34799;51.440;-2.534;2022-08-11T16:52:07;37.10;64.30
48988;DHT22;34799;51.440;-2.534;2022-08-11T16:54:40;37.10;64.80
48988;DHT22;34799;51.440;-2.534;2022-08-11T16:57:15;37.00;63.80
48988;DHT22;34799;51.440;-2.534;2022-08-11T17:00:07;37.00;63.90
48988;DHT22;34799;51.440;-2.534;2022-08-11T17:02:46;37.10;64.00
48988;DHT22;34799;51.440;-2.534;2022-08-11T17:05:52;37.30;64.40
48988;DHT22;34799;51.440;-2.534;2022-08-11T17:08:46;37.20;63.40
48988;DHT22;34799;51.440;-2.534;2022-08-11T17:11:47;37.10;63.80
48988;DHT22;34799;51.440;-2.534;2022-08-11T17:14:43;37.10;63.90
48988;DHT22;34799;51.440;-2.534;2022-08-11T17:17:15;37.20;64.10
48988;DHT22;34799;51.440;-2.534;2022-08-11T17:19:52;37.30;64.10
48988;DHT22;34799;51.440;-2.534;2022-08-11T17:22:23;37.10;63.70
48988;DHT22;34799;51.440;-2.534;2022-08-11T17:25:15;37.00;64.20
48988;DHT22;34799;51.440;-2.534;2022-08-11T17:27:51;37.00;63.20
48988;DHT22;34799;51.440;-2.534;2022-08-11T17:30:22;35.50;61.60
48988;DHT22;34799;51.440;-2.534;2022-08-11T17:33:17;37.30;62.30
48988;DHT22;34799;51.440;-2.534;2022-08-11T17:36:17;37.60;62.50
48988;DHT22;34799;51.440;-2.534;2022-08-11T17:38:52;37.90;62.40
48988;DHT22;34799;51.440;-2.534;2022-08-11T17:41:20;36.80;62.10
48988;DHT22;34799;51.440;-2.534;2022-08-11T17:44:18;37.90;63.10
48988;DHT22;34799;51.440;-2.534;2022-08-11T17:47:12;37.80;63.20
48988;DHT22;34799;51.440;-2.534;2022-08-11T17:49:59;37.70;63.80
48988;DHT22;34799;51.440;-2.534;2022-08-11T18:28:05;36.70;63.10
48988;DHT22;34799;51.440;-2.534;2022-08-11T18:30:51;35.70;62.80
48988;DHT22;34799;51.440;-2.534;2022-08-11T18:33:43;36.60;63.50
48988;DHT22;34799;51.440;-2.534;2022-08-11T18:36:40;36.60;64.30
48988;DHT22;34799;51.440;-2.534;2022-08-11T18:39:31;36.00;64.00
48988;DHT22;34799;51.440;-2.534;2022-08-11T18:42:22;35.60;64.40
48988;DHT22;34799;51.440;-2.534;2022-08-11T18:45:14;35.70;64.50
48988;DHT22;34799;51.440;-2.534;2022-08-11T18:48:05;35.20;64.70
48988;DHT22;34799;51.440;-2.534;2022-08-11T18:51:00;33.60;63.90
48988;DHT22;34799;51.440;-2.534;2022-08-11T18:53:56;34.70;65.20
48988;DHT22;34799;51.440;-2.534;2022-08-11T18:56:45;34.30;65.50
48988;DHT22;34799;51.440;-2.534;2022-08-11T18:59:39;33.90;66.10
48988;DHT22;34799;51.440;-2.534;2022-08-11T19:02:27;33.60;66.90
48988;DHT22;34799;51.440;-2.534;2022-08-11T19:05:21;33.30;67.10
48988;DHT22;34799;51.440;-2.534;2022-08-11T19:08:09;33.00;67.10
48988;DHT22;34799;51.440;-2.534;2022-08-11T19:11:00;32.70;67.50
48988;DHT22;34799;51.440;-2.534;2022-08-11T19:13:47;33.40;68.70
48988;DHT22;34799;51.440;-2.534;2022-08-11T19:16:40;32.40;68.40
48988;DHT22;34799;51.440;-2.534;2022-08-11T19:19:35;32.20;68.50
48988;DHT22;34799;51.440;-2.534;2022-08-11T19:22:31;31.90;68.70
48988;DHT22;34799;51.440;-2.534;2022-08-11T19:25:26;31.70;68.70
48988;DHT22;34799;51.440;-2.534;2022-08-11T19:28:17;31.20;68.70
48988;DHT22;34799;51.440;-2.534;2022-08-11T19:31:25;31.00;69.10
48988;DHT22;34799;51.440;-2.534;2022-08-11T19:34:16;31.40;69.70
48988;DHT22;34799;51.440;-2.534;2022-08-11T19:37:08;31.30;69.70
48988;DHT22;34799;51.440;-2.534;2022-08-11T19:40:05;31.00;69.90
48988;DHT22;34799;51.440;-2.534;2022-08-11T19:43:04;31.20;70.10
48988;DHT22;34799;51.440;-2.534;2022-08-11T19:46:05;28.80;68.40
48988;DHT22;34799;51.440;-2.534;2022-08-11T19:49:00;32.20;71.40
48988;DHT22;34799;51.440;-2.534;2022-08-11T19:51:49;30.10;70.60
48988;DHT22;34799;51.440;-2.534;2022-08-11T19:55:19;31.00;71.10
48988;DHT22;34799;51.440;-2.534;2022-08-11T19:58:15;29.90;70.60
48988;DHT22;34799;51.440;-2.534;2022-08-11T20:01:05;29.80;71.40
48988;DHT22;34799;51.440;-2.534;2022-08-11T20:04:02;30.40;72.50
48988;DHT22;34799;51.440;-2.534;2022-08-11T20:07:04;30.20;72.00
48988;DHT22;34799;51.440;-2.534;2022-08-11T20:10:06;30.10;72.50
48988;DHT22;34799;51.440;-2.534;2022-08-11T20:17:55;29.90;72.50
48988;DHT22;34799;51.440;-2.534;2022-08-11T20:20:52;29.60;72.90
48988;DHT22;34799;51.440;-2.534;2022-08-11T20:23:45;29.70;73.50
48988;DHT22;34799;51.440;-2.534;2022-08-11T22:20:44;27.20;80.30
48988;DHT22;34799;51.440;-2.534;2022-08-11T22:23:36;27.10;80.70
48988;DHT22;34799;51.440;-2.534;2022-08-11T22:26:25;27.10;80.20
48988;DHT22;34799;51.440;-2.534;2022-08-11T22:29:22;27.00;80.50
48988;DHT22;34799;51.440;-2.534;2022-08-11T22:32:10;27.10;80.50
48988;DHT22;34799;51.440;-2.534;2022-08-11T22:35:00;26.80;80.30
48988;DHT22;34799;51.440;-2.534;2022-08-11T22:37:55;26.80;81.00
48988;DHT22;34799;51.440;-2.534;2022-08-11T22:40:59;26.80;81.20
48988;DHT22;34799;51.440;-2.534;2022-08-11T22:43:54;26.90;80.90
48988;DHT22;34799;51.440;-2.534;2022-08-11T22:46:42;26.70;80.30
48988;DHT22;34799;51.440;-2.534;2022-08-11T22:49:33;24.60;79.70
48988;DHT22;34799;51.440;-2.534;2022-08-11T22:52:25;26.60;81.40
48988;DHT22;34799;51.440;-2.534;2022-08-11T22:55:13;26.90;81.40
48988;DHT22;34799;51.440;-2.534;2022-08-11T22:58:02;26.70;81.80
48988;DHT22;34799;51.440;-2.534;2022-08-11T23:00:52;26.70;81.30
48988;DHT22;34799;51.440;-2.534;2022-08-11T23:03:40;26.10;81.20
48988;DHT22;34799;51.440;-2.534;2022-08-11T23:06:29;26.50;82.40
48988;DHT22;34799;51.440;-2.534;2022-08-11T23:09:17;26.60;81.70
48988;DHT22;34799;51.440;-2.534;2022-08-11T23:12:08;26.50;82.40
48988;DHT22;34799;51.440;-2.534;2022-08-11T23:14:55;26.50;82.80
48988;DHT22;34799;51.440;-2.534;2022-08-11T23:17:48;26.40;82.90
48988;DHT22;34799;51.440;-2.534;2022-08-11T23:20:35;26.40;82.90
48988;DHT22;34799;51.440;-2.534;2022-08-11T23:23:27;26.30;83.60
48988;DHT22;34799;51.440;-2.534;2022-08-11T23:26:30;26.20;83.80
48988;DHT22;34799;51.440;-2.534;2022-08-11T23:29:21;26.20;84.10
48988;DHT22;34799;51.440;-2.534;2022-08-11T23:32:08;24.00;82.90
48988;DHT22;34799;51.440;-2.534;2022-08-11T23:34:58;25.90;84.60
48988;DHT22;34799;51.440;-2.534;2022-08-11T23:37:45;25.70;84.70
48988;DHT22;34799;51.440;-2.534;2022-08-11T23:40:31;25.60;84.70
48988;DHT22;34799;51.440;-2.534;2022-08-11T23:43:43;25.60;84.70